createdAt,value
2018-11-07T00:02:41.964Z,96015.13
2018-11-07T00:05:10.736Z,96015.13
2018-11-07T00:07:38.215Z,96010.09
2018-11-07T00:10:06.455Z,96012.53
2018-11-07T00:12:33.814Z,96016.53
2018-11-07T00:15:03.625Z,96017.16
2018-11-07T00:17:31.094Z,96019.59
2018-11-07T00:19:58.550Z,96021.73
2018-11-07T00:22:26.059Z,96027.42
2018-11-07T00:24:53.420Z,96030.59
2018-11-07T00:27:20.675Z,96025.09
2018-11-07T00:29:48.192Z,96020.98
2018-11-07T00:32:15.542Z,96019.86
2018-11-07T00:34:43.517Z,96015.23
2018-11-07T00:37:10.812Z,96018.77
2018-11-07T00:39:38.155Z,96022.28
2018-11-07T00:42:05.800Z,96027.33
2018-11-07T00:44:34.055Z,96033.46
2018-11-07T00:47:02.737Z,96040.46
2018-11-07T00:49:30.152Z,96042.20
2018-11-07T00:51:58.530Z,96047.45
2018-11-07T00:54:26.013Z,96042.25
2018-11-07T00:56:53.274Z,96037.23
2018-11-07T00:59:20.578Z,96039.66
2018-11-07T01:01:48.073Z,96037.13
2018-11-07T01:04:15.468Z,96042.78
2018-11-07T01:06:44.472Z,96034.59
2018-11-07T01:09:12.795Z,96041.08
2018-11-07T01:11:42.739Z,96040.33
2018-11-07T01:14:10.686Z,96036.30
2018-11-07T01:16:39.760Z,96033.16
2018-11-07T01:19:07.467Z,96036.07
2018-11-07T01:21:35.352Z,96028.19
2018-11-07T01:24:02.831Z,96030.87
2018-11-07T01:26:30.250Z,96031.64
2018-11-07T01:28:57.683Z,95986.58
2018-11-07T01:31:25.186Z,96037.06
2018-11-07T01:33:52.544Z,96028.28
2018-11-07T01:36:19.876Z,96028.85
2018-11-07T01:38:49.346Z,96030.69
2018-11-07T01:41:16.722Z,96020.50
2018-11-07T01:43:44.150Z,96008.91
2018-11-07T01:46:11.680Z,96009.03
2018-11-07T01:48:39.186Z,96009.44
2018-11-07T01:51:07.689Z,96010.06
2018-11-07T01:53:36.793Z,96012.81
2018-11-07T01:56:04.336Z,96015.28
2018-11-07T01:58:31.760Z,96002.97
2018-11-07T02:00:59.110Z,95997.91
2018-11-07T02:03:27.637Z,96004.27
2018-11-07T02:05:55.101Z,96004.19
2018-11-07T02:08:27.101Z,95998.27
2018-11-07T02:10:54.457Z,95996.43
2018-11-07T02:13:21.876Z,96003.12
2018-11-07T02:15:49.267Z,96003.12
2018-11-07T02:18:17.509Z,96002.58
2018-11-07T02:20:45.442Z,95998.99
2018-11-07T02:23:12.820Z,96005.89
2018-11-07T02:25:42.475Z,96012.38
2018-11-07T02:28:12.084Z,96008.89
2018-11-07T02:30:43.019Z,96011.78
2018-11-07T02:33:10.651Z,96010.60
2018-11-07T02:35:37.985Z,96016.61
2018-11-07T02:38:05.687Z,96018.09
2018-11-07T02:40:34.707Z,96015.39
2018-11-07T02:43:03.934Z,96010.05
2018-11-07T02:45:31.211Z,95996.52
2018-11-07T02:47:58.689Z,95995.70
2018-11-07T02:50:26.058Z,95997.00
2018-11-07T02:52:53.513Z,95998.67
2018-11-07T02:55:20.805Z,96005.81
2018-11-07T02:57:49.125Z,96008.87
2018-11-07T03:00:16.405Z,96004.91
2018-11-07T03:02:43.937Z,96008.59
2018-11-07T03:05:11.292Z,96006.29
2018-11-07T03:07:39.526Z,96006.18
2018-11-07T03:10:10.042Z,95996.09
2018-11-07T03:12:39.401Z,96001.84
2018-11-07T03:15:09.069Z,96002.57
2018-11-07T03:17:36.762Z,96001.73
2018-11-07T03:20:05.461Z,96002.31
2018-11-07T03:22:33.231Z,96003.03
2018-11-07T03:25:01.929Z,96008.86
2018-11-07T03:27:29.366Z,96009.62
2018-11-07T03:29:56.913Z,96009.22
2018-11-07T03:32:24.481Z,96005.75
2018-11-07T03:34:51.901Z,96012.39
2018-11-07T03:37:19.328Z,96007.98
2018-11-07T03:39:48.861Z,96009.44
2018-11-07T03:42:16.330Z,96012.97
2018-11-07T03:44:43.790Z,96010.38
2018-11-07T03:47:14.258Z,96010.01
2018-11-07T03:49:41.671Z,96004.63
2018-11-07T03:52:11.271Z,96010.73
2018-11-07T03:54:53.536Z,96022.03
2018-11-07T03:57:20.913Z,96016.40
2018-11-07T03:59:48.960Z,96020.56
2018-11-07T04:02:18.273Z,96022.02
2018-11-07T04:04:46.269Z,96012.59
2018-11-07T04:07:13.554Z,96005.10
2018-11-07T04:09:42.959Z,96005.09
2018-11-07T04:12:11.759Z,96006.84
2018-11-07T04:14:41.191Z,96004.81
2018-11-07T04:17:08.690Z,96004.81
2018-11-07T04:19:35.999Z,96000.00
2018-11-07T04:22:03.278Z,95993.24
2018-11-07T04:24:32.758Z,95994.66
2018-11-07T04:27:01.109Z,95999.99
2018-11-07T04:29:28.525Z,96001.84
2018-11-07T04:31:56.802Z,95998.89
2018-11-07T04:34:25.678Z,96005.55
2018-11-07T04:36:54.013Z,96002.77
2018-11-07T04:39:22.518Z,96004.98
2018-11-07T04:41:51.617Z,96002.20
2018-11-07T04:44:19.063Z,96002.77
2018-11-07T04:46:47.758Z,95999.97
2018-11-07T04:49:20.315Z,96007.38
2018-11-07T04:51:47.787Z,96001.28
2018-11-07T04:54:15.170Z,96005.72
2018-11-07T04:56:42.500Z,95993.89
2018-11-07T04:59:09.755Z,95997.13
2018-11-07T05:01:39.925Z,95994.80
2018-11-07T05:04:07.324Z,95996.61
2018-11-07T05:06:34.760Z,95993.75
2018-11-07T05:09:02.354Z,95994.80
2018-11-07T05:11:31.436Z,96002.39
2018-11-07T05:13:58.783Z,96001.27
2018-11-07T05:16:26.139Z,95999.61
2018-11-07T05:18:53.494Z,95999.61
2018-11-07T05:21:22.779Z,95999.23
2018-11-07T05:23:50.083Z,96003.48
2018-11-07T05:26:17.442Z,96001.55
2018-11-07T05:28:46.618Z,96005.33
2018-11-07T05:31:13.855Z,96006.14
2018-11-07T05:33:44.078Z,96005.95
2018-11-07T05:36:12.988Z,96006.97
2018-11-07T05:38:42.517Z,96008.91
2018-11-07T05:41:09.996Z,96005.14
2018-11-07T05:43:37.718Z,95999.17
2018-11-07T05:46:06.546Z,96010.38
2018-11-07T05:48:33.896Z,96010.45
2018-11-07T05:51:02.382Z,96006.94
2018-11-07T05:53:29.699Z,96004.98
2018-11-07T05:55:58.623Z,96004.54
2018-11-07T05:58:26.088Z,96007.42
2018-11-07T06:00:53.458Z,96022.38
2018-11-07T06:03:22.052Z,96026.73
2018-11-07T06:05:52.682Z,95986.39
2018-11-07T06:08:20.067Z,96025.26
2018-11-07T06:10:49.729Z,96021.36
2018-11-07T06:13:19.027Z,96023.75
2018-11-07T06:15:46.551Z,96024.31
2018-11-07T06:18:16.995Z,96029.94
2018-11-07T06:20:44.893Z,96032.53
2018-11-07T06:23:12.950Z,96033.53
2018-11-07T06:25:40.681Z,96036.64
2018-11-07T06:28:08.116Z,96044.14
2018-11-07T06:30:35.562Z,96048.20
2018-11-07T06:33:02.942Z,96042.39
2018-11-07T06:35:30.309Z,96043.72
2018-11-07T06:42:46.104Z,96049.60
2018-11-07T06:45:19.898Z,96049.33
2018-11-07T06:47:47.855Z,96048.67
2018-11-07T06:50:17.513Z,96048.83
2018-11-07T06:52:47.130Z,96050.76
2018-11-07T06:55:15.911Z,96048.94
2018-11-07T06:57:43.291Z,96046.09
2018-11-07T07:00:14.471Z,96054.35
2018-11-07T07:02:43.058Z,96047.80
2018-11-07T07:05:10.472Z,96049.65
2018-11-07T07:07:38.206Z,96043.13
2018-11-07T07:10:09.168Z,96048.24
2018-11-07T07:12:36.800Z,96048.45
2018-11-07T07:15:05.244Z,96046.53
2018-11-07T07:17:32.727Z,96051.82
2018-11-07T07:20:01.802Z,96057.20
2018-11-07T07:22:31.609Z,96053.59
2018-11-07T07:25:01.837Z,96060.95
2018-11-07T07:27:31.681Z,96048.98
2018-11-07T07:29:59.184Z,96043.94
2018-11-07T07:32:26.466Z,96040.91
2018-11-07T07:34:54.113Z,96027.13
2018-11-07T07:37:21.855Z,96038.98
2018-11-07T07:39:50.278Z,96039.80
2018-11-07T07:42:17.618Z,96035.84
2018-11-07T07:44:45.014Z,96034.84
2018-11-07T07:47:14.600Z,96041.50
2018-11-07T07:49:43.616Z,96037.88
2018-11-07T07:52:10.961Z,96039.88
2018-11-07T07:54:39.674Z,96043.36
2018-11-07T07:57:08.160Z,96045.89
2018-11-07T07:59:37.623Z,96046.59
2018-11-07T08:02:05.245Z,96047.19
2018-11-07T08:04:33.015Z,96037.52
2018-11-07T08:07:00.406Z,96039.28
2018-11-07T08:09:27.925Z,96033.77
2018-11-07T08:11:55.511Z,96031.07
2018-11-07T08:14:23.694Z,96027.23
2018-11-07T08:16:53.843Z,96025.16
2018-11-07T08:19:22.905Z,96022.19
2018-11-07T08:21:50.274Z,96026.61
2018-11-07T08:24:17.556Z,96029.44
2018-11-07T08:28:09.397Z,96034.83
2018-11-07T08:30:36.902Z,96040.50
2018-11-07T08:33:04.538Z,96039.84
2018-11-07T08:35:31.865Z,96036.00
2018-11-07T08:37:59.138Z,96033.85
2018-11-07T08:40:26.464Z,96028.14
2018-11-07T08:42:53.763Z,96022.03
2018-11-07T08:45:22.008Z,96017.25
2018-11-07T08:47:50.381Z,96012.61
2018-11-07T08:50:19.818Z,96010.91
2018-11-07T08:52:47.537Z,96009.17
2018-11-07T08:55:19.286Z,96005.16
2018-11-07T08:57:46.738Z,96003.97
2018-11-07T09:00:23.002Z,96005.69
2018-11-07T09:02:50.438Z,96009.62
2018-11-07T09:05:20.197Z,96008.55
2018-11-07T09:07:48.696Z,96007.56
2018-11-07T09:10:17.337Z,96008.54
2018-11-07T09:12:45.063Z,96011.45
2018-11-07T09:15:17.144Z,96012.81
2018-11-07T09:17:44.701Z,96018.22
2018-11-07T09:20:14.642Z,96010.80
2018-11-07T09:22:42.890Z,96016.58
2018-11-07T09:25:10.536Z,96015.48
2018-11-07T09:27:39.648Z,96009.23
2018-11-07T09:30:11.853Z,96012.77
2018-11-07T09:32:40.173Z,96013.00
2018-11-07T09:35:10.199Z,96009.23
2018-11-07T09:37:38.049Z,96006.45
2018-11-07T09:40:08.024Z,96009.94
2018-11-07T09:42:37.227Z,96005.57
2018-11-07T09:45:05.713Z,96002.55
2018-11-07T09:47:35.558Z,96003.00
2018-11-07T09:50:03.869Z,95996.26
2018-11-07T09:52:31.670Z,95997.50
2018-11-07T09:54:59.665Z,95999.48
2018-11-07T09:57:27.924Z,95999.14
2018-11-07T09:59:57.472Z,96002.06
2018-11-07T10:02:25.777Z,96000.39
2018-11-07T10:04:53.933Z,95996.58
2018-11-07T10:07:23.899Z,95980.95
2018-11-07T10:09:51.931Z,95991.06
2018-11-07T10:12:21.516Z,95995.86
2018-11-07T10:14:49.005Z,95997.45
2018-11-07T10:17:16.405Z,95992.57
2018-11-07T10:19:43.846Z,95991.00
2018-11-07T10:22:11.350Z,95990.45
2018-11-07T10:24:53.779Z,95987.73
2018-11-07T10:27:21.419Z,95982.72
2018-11-07T10:29:49.607Z,95981.84
2018-11-07T10:32:18.224Z,95979.47
2018-11-07T10:34:45.919Z,95985.09
2018-11-07T10:37:13.398Z,95984.32
2018-11-07T10:39:40.654Z,95989.50
2018-11-07T10:42:08.069Z,95985.11
2018-11-07T10:44:36.502Z,95987.66
2018-11-07T10:47:04.080Z,95981.09
2018-11-07T10:49:31.327Z,95993.05
2018-11-07T10:51:58.897Z,95985.03
2018-11-07T10:54:27.870Z,95986.83
2018-11-07T10:56:55.621Z,95983.78
2018-11-07T10:59:25.105Z,95983.47
2018-11-07T11:01:58.263Z,95981.97
2018-11-07T11:04:25.687Z,95978.69
2018-11-07T11:06:54.139Z,95972.24
2018-11-07T11:09:21.451Z,95965.31
2018-11-07T11:11:49.802Z,95966.67
2018-11-07T11:14:20.169Z,95961.50
2018-11-07T11:16:49.666Z,95953.53
2018-11-07T11:19:17.893Z,95965.84
2018-11-07T11:21:46.384Z,95963.81
2018-11-07T11:24:15.128Z,95957.45
2018-11-07T11:26:44.801Z,95964.34
2018-11-07T11:29:13.353Z,95965.33
2018-11-07T11:31:40.647Z,95969.05
2018-11-07T11:34:08.853Z,95960.25
2018-11-07T11:36:36.161Z,95955.97
2018-11-07T11:39:04.750Z,95952.15
2018-11-07T11:41:32.113Z,95955.29
2018-11-07T11:43:59.468Z,95961.02
2018-11-07T11:46:26.887Z,95960.94
2018-11-07T11:48:56.297Z,95963.69
2018-11-07T11:51:23.645Z,95957.34
2018-11-07T11:53:53.162Z,95961.37
2018-11-07T11:56:22.004Z,95959.38
2018-11-07T11:58:50.765Z,95958.30
2018-11-07T12:01:18.280Z,95967.53
2018-11-07T12:03:45.635Z,95965.32
2018-11-07T12:06:15.179Z,95963.11
2018-11-07T12:08:42.516Z,95963.19
2018-11-07T12:11:11.265Z,95955.83
2018-11-07T12:13:40.775Z,95967.10
2018-11-07T12:16:09.517Z,95971.84
2018-11-07T12:18:37.794Z,95965.50
2018-11-07T12:21:07.353Z,95964.30
2018-11-07T12:23:35.144Z,95958.06
2018-11-07T12:26:03.023Z,95969.80
2018-11-07T12:28:30.456Z,95966.16
2018-11-07T12:30:59.142Z,95968.80
2018-11-07T12:33:26.475Z,95962.52
2018-11-07T12:35:54.143Z,95957.07
2018-11-07T12:38:21.473Z,95962.55
2018-11-07T12:40:48.840Z,95961.37
2018-11-07T12:43:16.278Z,95958.40
2018-11-07T12:45:45.009Z,95956.23
2018-11-07T12:48:12.578Z,95951.60
2018-11-07T12:50:43.293Z,95961.54
2018-11-07T12:53:10.665Z,95955.44
2018-11-07T12:55:39.043Z,95956.55
2018-11-07T12:58:07.252Z,95957.22
2018-11-07T13:00:34.485Z,95956.24
2018-11-07T13:03:03.324Z,95959.38
2018-11-07T13:05:33.147Z,95959.19
2018-11-07T13:08:00.526Z,95960.64
2018-11-07T13:10:28.464Z,95969.13
2018-11-07T13:12:55.736Z,95970.05
2018-11-07T13:15:23.733Z,95961.53
2018-11-07T13:17:53.535Z,95958.80
2018-11-07T13:20:25.182Z,95970.09
2018-11-07T13:22:55.618Z,95981.66
2018-11-07T13:25:23.593Z,95972.58
2018-11-07T13:27:51.252Z,95984.48
2018-11-07T13:30:19.859Z,95984.31
2018-11-07T13:32:47.449Z,95982.33
2018-11-07T13:35:16.646Z,95982.68
2018-11-07T13:37:46.187Z,95993.88
2018-11-07T13:40:17.179Z,95990.59
2018-11-07T13:42:44.503Z,95996.52
2018-11-07T13:45:16.107Z,96003.98
2018-11-07T13:47:47.630Z,96011.03
2018-11-07T13:50:15.930Z,96012.25
2018-11-07T13:52:43.447Z,96010.60
2018-11-07T13:55:12.969Z,96008.97
2018-11-07T13:57:40.515Z,96005.26
2018-11-07T14:00:13.543Z,96003.36
2018-11-07T14:02:43.360Z,96009.59
2018-11-07T14:05:11.646Z,96014.11
2018-11-07T14:07:39.638Z,96007.03
2018-11-07T14:10:11.893Z,96005.64
2018-11-07T14:12:39.699Z,96011.22
2018-11-07T14:15:09.519Z,96005.80
2018-11-07T14:17:39.765Z,96007.20
2018-11-07T14:20:08.921Z,96009.77
2018-11-07T14:22:36.538Z,96005.59
2018-11-07T14:25:03.960Z,96007.28
2018-11-07T14:27:32.187Z,96008.05
2018-11-07T14:29:59.524Z,96015.47
2018-11-07T14:32:30.868Z,96019.65
2018-11-07T14:34:58.315Z,96027.47
2018-11-07T14:37:26.910Z,96030.72
2018-11-07T14:39:54.710Z,96034.80
2018-11-07T14:42:24.180Z,96037.46
2018-11-07T14:44:52.296Z,96040.95
2018-11-07T14:47:21.964Z,96045.94
2018-11-07T14:49:49.364Z,96041.84
2018-11-07T14:52:16.714Z,96045.13
2018-11-07T14:54:45.061Z,96048.03
2018-11-07T14:57:12.589Z,96050.38
2018-11-07T14:59:40.788Z,96054.82
2018-11-07T15:02:10.502Z,96061.56
2018-11-07T15:04:39.981Z,96062.38
2018-11-07T15:07:07.311Z,96053.14
2018-11-07T15:09:34.622Z,96060.55
2018-11-07T15:12:02.203Z,96078.23
2018-11-07T15:14:31.971Z,96081.89
2018-11-07T15:16:59.551Z,96081.30
2018-11-07T15:19:28.170Z,96089.86
2018-11-07T15:21:55.685Z,96093.80
2018-11-07T15:24:23.181Z,96103.30
2018-11-07T15:26:51.607Z,96102.42
2018-11-07T15:29:23.780Z,96105.33
2018-11-07T15:31:51.176Z,96107.59
2018-11-07T15:34:18.912Z,96117.78
2018-11-07T15:36:46.319Z,96117.32
2018-11-07T15:39:14.464Z,96108.84
2018-11-07T15:41:44.647Z,96120.66
2018-11-07T15:44:13.468Z,96119.61
2018-11-07T15:46:42.204Z,96120.79
2018-11-07T15:49:12.569Z,96120.16
2018-11-07T15:51:40.724Z,96122.30
2018-11-07T15:54:09.731Z,96125.22
2018-11-07T15:56:40.795Z,96133.30
2018-11-07T15:59:10.355Z,96126.45
2018-11-07T16:01:37.837Z,96122.42
2018-11-07T16:04:05.379Z,96131.65
2018-11-07T16:06:34.278Z,96134.43
2018-11-07T16:09:01.668Z,96130.59
2018-11-07T16:11:30.810Z,96145.25
2018-11-07T16:13:59.271Z,96147.19
2018-11-07T16:16:27.989Z,96151.64
2018-11-07T16:18:57.363Z,96157.68
2018-11-07T16:21:24.874Z,96158.08
2018-11-07T16:23:53.011Z,96162.41
2018-11-07T16:26:21.352Z,96166.67
2018-11-07T16:28:48.820Z,96173.97
2018-11-07T16:31:16.398Z,96182.84
2018-11-07T16:33:45.472Z,96188.70
2018-11-07T16:36:13.976Z,96195.28
2018-11-07T16:38:42.526Z,96196.17
2018-11-07T16:41:10.694Z,96204.77
2018-11-07T16:43:38.191Z,96214.08
2018-11-07T16:46:05.563Z,96217.56
2018-11-07T16:48:34.321Z,96217.51
2018-11-07T16:51:01.705Z,96221.28
2018-11-07T16:53:29.214Z,96223.46
2018-11-07T16:55:56.871Z,96222.73
2018-11-07T16:58:24.242Z,96228.95
2018-11-07T17:00:51.797Z,96244.80
2018-11-07T17:03:19.296Z,96243.50
2018-11-07T17:05:46.725Z,96245.05
2018-11-07T17:08:17.057Z,96250.66
2018-11-07T17:10:55.366Z,96254.23
2018-11-07T17:13:22.834Z,96258.63
2018-11-07T17:15:52.567Z,96261.00
2018-11-07T17:18:19.836Z,96270.48
2018-11-07T17:20:47.324Z,96275.22
2018-11-07T17:23:18.531Z,96270.09
2018-11-07T17:25:43.933Z,96275.92
2018-11-07T17:28:11.419Z,96276.73
2018-11-07T17:30:38.869Z,96276.24
2018-11-07T17:33:08.690Z,96278.75
2018-11-07T17:35:35.986Z,96282.52
2018-11-07T17:38:06.119Z,96287.84
2018-11-07T17:40:35.516Z,96283.51
2018-11-07T17:43:02.920Z,96287.07
2018-11-07T17:45:30.281Z,96288.36
2018-11-07T17:48:00.521Z,96293.45
2018-11-07T17:50:29.911Z,96295.92
2018-11-07T17:52:57.391Z,96304.67
2018-11-07T17:55:24.927Z,96298.13
2018-11-07T17:57:52.387Z,96309.95
2018-11-07T18:00:21.720Z,96309.43
2018-11-07T18:02:50.542Z,96319.61
2018-11-07T18:05:17.949Z,96321.17
2018-11-07T18:07:45.402Z,96318.53
2018-11-07T18:10:16.715Z,96318.89
2018-11-07T18:12:44.313Z,96320.08
2018-11-07T18:15:11.956Z,96325.49
2018-11-07T18:17:40.729Z,96324.06
2018-11-07T18:20:10.221Z,96328.25
2018-11-07T18:22:38.360Z,96333.79
2018-11-07T18:25:06.689Z,96339.03
2018-11-07T18:27:35.370Z,96339.42
2018-11-07T18:30:05.782Z,96339.52
2018-11-07T18:32:34.318Z,96350.67
2018-11-07T18:35:02.978Z,96343.34
2018-11-07T18:37:32.548Z,96347.16
2018-11-07T18:40:04.830Z,96349.34
2018-11-07T18:42:32.198Z,96354.32
2018-11-07T18:45:00.761Z,96352.56
2018-11-07T18:47:28.261Z,96345.62
2018-11-07T18:49:55.965Z,96353.84
2018-11-07T18:52:23.492Z,96353.38
2018-11-07T18:54:50.984Z,96358.16
2018-11-07T18:57:22.270Z,96369.51
2018-11-07T18:59:49.737Z,96370.03
2018-11-07T19:02:17.664Z,96377.04
2018-11-07T19:04:44.985Z,96377.50
2018-11-07T19:07:25.015Z,96380.42
2018-11-07T19:09:53.240Z,96381.31
2018-11-07T19:12:20.688Z,96389.16
2018-11-07T19:14:48.584Z,96389.33
2018-11-07T19:17:15.960Z,96392.36
2018-11-07T19:19:43.439Z,96389.72
2018-11-07T19:22:10.912Z,96395.61
2018-11-07T19:24:38.459Z,96393.46
2018-11-07T19:27:06.905Z,96387.05
2018-11-07T19:29:34.103Z,96393.02
2018-11-07T19:32:01.429Z,96394.09
2018-11-07T19:34:28.920Z,96390.34
2018-11-07T19:36:56.542Z,96398.33
2018-11-07T19:39:23.856Z,96402.23
2018-11-07T19:41:52.360Z,96410.19
2018-11-07T19:44:20.518Z,96411.40
2018-11-07T19:46:48.102Z,96411.50
2018-11-07T19:49:18.343Z,96413.42
2018-11-07T19:51:47.890Z,96419.02
2018-11-07T19:54:15.849Z,96422.51
2018-11-07T19:56:43.516Z,96420.39
2018-11-07T19:59:12.367Z,96426.09
2018-11-07T20:01:40.261Z,96416.41
2018-11-07T20:04:09.226Z,96417.66
2018-11-07T20:06:38.042Z,96426.30
2018-11-07T20:09:07.889Z,96432.03
2018-11-07T20:11:41.105Z,96433.96
2018-11-07T20:14:11.666Z,96433.14
2018-11-07T20:16:39.559Z,96437.58
2018-11-07T20:19:25.371Z,96437.48
2018-11-07T20:21:54.093Z,96441.75
2018-11-07T20:24:22.056Z,96443.32
2018-11-07T20:26:52.371Z,96448.34
2018-11-07T20:29:21.023Z,96450.53
2018-11-07T20:31:48.832Z,96449.84
2018-11-07T20:34:16.101Z,96455.81
2018-11-07T20:36:43.651Z,96456.00
2018-11-07T20:39:13.621Z,96469.04
2018-11-07T20:41:43.055Z,96476.44
2018-11-07T20:44:10.662Z,96469.13
2018-11-07T20:46:39.127Z,96475.87
2018-11-07T20:49:09.667Z,96478.34
2018-11-07T20:51:37.045Z,96477.21
2018-11-07T20:54:04.364Z,96480.58
2018-11-07T20:56:33.040Z,96486.91
2018-11-07T20:59:00.495Z,96482.06
2018-11-07T21:01:28.798Z,96486.19
2018-11-07T21:03:56.560Z,96484.04
2018-11-07T21:06:23.990Z,96492.34
2018-11-07T21:08:51.904Z,96487.67
2018-11-07T21:11:19.304Z,96496.83
2018-11-07T21:13:46.995Z,96489.19
2018-11-07T21:16:14.942Z,96498.09
2018-11-07T21:18:42.324Z,96492.76
2018-11-07T21:21:10.362Z,96488.18
2018-11-07T21:23:37.821Z,96497.16
2018-11-07T21:26:05.611Z,96507.30
2018-11-07T21:28:32.912Z,96507.06
2018-11-07T21:31:00.591Z,96511.48
2018-11-07T21:33:28.056Z,96516.58
2018-11-07T21:35:55.439Z,96520.58
2018-11-07T21:38:22.863Z,96528.45
2018-11-07T21:40:52.339Z,96523.36
2018-11-07T21:43:19.899Z,96534.05
2018-11-07T21:45:49.154Z,96526.02
2018-11-07T21:48:18.416Z,96528.23
2018-11-07T21:50:45.808Z,96536.95
2018-11-07T21:53:13.234Z,96534.08
2018-11-07T21:55:40.694Z,96529.33
2018-11-07T21:58:09.066Z,96504.21
2018-11-07T22:00:36.506Z,96534.10
2018-11-07T22:03:04.254Z,96540.25
2018-11-07T22:05:31.798Z,96544.84
2018-11-07T22:08:00.119Z,96536.23
2018-11-07T22:10:27.762Z,96538.02
2018-11-07T22:12:56.432Z,96542.47
2018-11-07T22:15:24.199Z,96547.77
2018-11-07T22:17:53.317Z,96544.38
2018-11-07T22:20:21.477Z,96549.55
2018-11-07T22:22:49.904Z,96551.31
2018-11-07T22:25:17.846Z,96555.44
2018-11-07T22:27:47.794Z,96558.50
2018-11-07T22:30:16.923Z,96556.86
2018-11-07T22:32:44.274Z,96558.53
2018-11-07T22:35:14.920Z,96561.13
2018-11-07T22:37:42.866Z,96552.14
2018-11-07T22:40:12.050Z,96552.05
2018-11-07T22:42:42.596Z,96548.69
2018-11-07T22:45:28.702Z,96543.02
2018-11-07T22:47:58.161Z,96550.41
2018-11-07T22:50:25.579Z,96557.02
2018-11-07T22:52:52.890Z,96549.34
2018-11-07T23:02:18.174Z,96561.86
2018-11-07T23:04:45.495Z,96560.10
2018-11-07T23:07:14.839Z,96566.47
2018-11-07T23:09:42.331Z,96563.56
2018-11-07T23:12:10.280Z,96560.20
2018-11-07T23:14:38.496Z,96560.73
2018-11-07T23:17:07.930Z,96562.05
2018-11-07T23:19:35.839Z,96565.77
2018-11-07T23:22:09.764Z,96569.13
2018-11-07T23:24:38.151Z,96574.34
2018-11-07T23:27:05.709Z,96576.73
2018-11-07T23:29:33.833Z,96579.53
2018-11-07T23:32:01.132Z,96583.70
2018-11-07T23:34:28.480Z,96580.47
2018-11-07T23:36:55.744Z,96585.25
2018-11-07T23:39:25.059Z,96585.65
2018-11-07T23:41:52.414Z,96584.86
2018-11-07T23:44:21.875Z,96602.02
2018-11-07T23:46:49.134Z,96604.07
2018-11-07T23:49:21.281Z,96603.61
2018-11-07T23:51:50.373Z,96597.36
2018-11-07T23:54:19.992Z,96607.64
2018-11-07T23:56:47.804Z,96596.19
2018-11-07T23:59:15.090Z,96599.40
